Time,TemperatureF,DewpointF,PressureIn,WindDirection,WindDirectionDegrees,WindSpeedMPH,WindSpeedGustMPH,Humidity,HourlyPrecipIn,Conditions,Clouds,dailyrainin,SoftwareType,DateUTC
2013-04-15 00:00:00,52.9,41.4,29.35,North,0,0.0,0.0,65,0.00,,,0.00,WUHU216HW,2013-04-15 05:00:00,
2013-04-15 00:05:00,52.4,40.5,29.35,North,0,0.0,0.0,64,0.00,,,0.00,WUHU216HW,2013-04-15 05:05:00,
2013-04-15 00:10:00,50.0,37.9,29.35,North,0,0.0,0.0,63,0.00,,,0.00,WUHU216HW,2013-04-15 05:10:00,
2013-04-15 00:15:00,48.8,36.4,29.36,North,0,0.0,0.0,62,0.00,,,0.00,WUHU216HW,2013-04-15 05:15:00,
2013-04-15 00:20:00,47.9,35.5,29.36,North,0,0.0,0.0,62,0.00,,,0.00,WUHU216HW,2013-04-15 05:20:00,
2013-04-15 00:25:00,47.2,35.2,29.36,North,0,0.0,0.0,63,0.00,,,0.00,WUHU216HW,2013-04-15 05:25:00,
2013-04-15 00:30:00,47.0,35.0,29.36,North,0,0.0,0.0,63,0.00,,,0.00,WUHU216HW,2013-04-15 05:30:00,
2013-04-15 00:35:00,46.6,34.7,29.36,North,0,0.0,0.0,63,0.00,,,0.00,WUHU216HW,2013-04-15 05:35:00,
2013-04-15 00:40:00,46.3,34.3,29.36,North,0,0.0,0.0,63,0.00,,,0.00,WUHU216HW,2013-04-15 05:40:00,
2013-04-15 00:45:00,45.7,34.2,29.36,North,0,0.0,0.0,64,0.00,,,0.00,WUHU216HW,2013-04-15 05:45:00,
2013-04-15 00:50:00,45.7,34.2,29.36,North,0,0.0,0.0,64,0.00,,,0.00,WUHU216HW,2013-04-15 05:50:00,
2013-04-15 00:55:00,45.4,33.8,29.36,North,0,0.0,0.0,64,0.00,,,0.00,WUHU216HW,2013-04-15 05:55:00,
2013-04-15 01:00:00,45.2,33.7,29.35,North,0,0.0,0.0,64,0.00,,,0.00,WUHU216HW,2013-04-15 06:00:00,
2013-04-15 01:05:00,45.0,33.6,29.36,North,0,0.0,0.0,64,0.00,,,0.00,WUHU216HW,2013-04-15 06:05:00,
2013-04-15 01:10:00,44.8,33.8,29.35,North,0,0.0,0.0,65,0.00,,,0.00,WUHU216HW,2013-04-15 06:10:00,
2013-04-15 01:15:00,44.6,33.6,29.36,North,0,0.0,0.0,65,0.00,,,0.00,WUHU216HW,2013-04-15 06:15:00,
2013-04-15 01:20:00,44.5,33.4,29.35,North,0,0.0,0.0,65,0.00,,,0.00,WUHU216HW,2013-04-15 06:20:00,
2013-04-15 01:25:00,44.3,33.2,29.36,North,0,0.0,0.0,65,0.00,,,0.00,WUHU216HW,2013-04-15 06:25:00,
2013-04-15 01:30:00,43.9,32.9,29.37,North,0,0.0,0.0,65,0.00,,,0.00,WUHU216HW,2013-04-15 06:30:00,
2013-04-15 01:35:00,43.6,32.6,29.37,North,0,0.0,0.0,65,0.00,,,0.00,WUHU216HW,2013-04-15 06:35:00,
2013-04-15 01:40:00,43.4,32.4,29.36,North,0,0.0,0.0,65,0.00,,,0.00,WUHU216HW,2013-04-15 06:40:00,
2013-04-15 01:45:00,43.2,32.2,29.36,North,0,0.0,0.0,65,0.00,,,0.00,WUHU216HW,2013-04-15 06:45:00,
2013-04-15 01:50:00,43.0,32.4,29.37,North,0,0.0,0.0,66,0.00,,,0.00,WUHU216HW,2013-04-15 06:50:00,
2013-04-15 01:55:00,42.8,32.2,29.36,North,0,0.0,0.0,66,0.00,,,0.00,WUHU216HW,2013-04-15 06:55:00,
2013-04-15 02:00:00,42.8,32.2,29.36,North,0,0.0,0.0,66,0.00,,,0.00,WUHU216HW,2013-04-15 07:00:00,
2013-04-15 02:05:00,42.7,32.0,29.37,North,0,0.0,0.0,66,0.00,,,0.00,WUHU216HW,2013-04-15 07:05:00,
2013-04-15 02:06:00,42.7,32.0,29.37,North,0,0.0,0.0,66,0.00,,,0.00,WUHU216HW,2013-04-15 07:06:00,
2013-04-15 02:08:00,42.7,32.0,29.37,North,0,0.0,0.0,66,0.00,,,0.00,WUHU216HW,2013-04-15 07:08:00,
2013-04-15 02:09:00,42.7,32.0,29.37,North,0,0.0,0.0,66,0.00,,,0.00,WUHU216HW,2013-04-15 07:09:00,
2013-04-15 02:10:00,42.7,32.0,29.37,North,0,0.0,0.0,66,0.00,,,0.00,WUHU216HW,2013-04-15 07:10:00,
2013-04-15 02:12:00,42.5,32.0,29.37,North,0,0.0,0.0,66,0.00,,,0.00,WUHU216HW,2013-04-15 07:12:00,
2013-04-15 02:15:00,42.5,32.0,29.37,North,0,0.0,0.0,66,0.00,,,0.00,WUHU216HW,2013-04-15 07:15:00,
2013-04-15 02:18:00,42.5,32.0,29.37,North,0,0.0,0.0,66,0.00,,,0.00,WUHU216HW,2013-04-15 07:18:00,
2013-04-15 02:19:00,42.5,32.0,29.38,North,0,0.0,0.0,66,0.00,,,0.00,WUHU216HW,2013-04-15 07:19:00,
2013-04-15 02:21:00,42.5,32.0,29.38,North,0,0.0,0.0,66,0.00,,,0.00,WUHU216HW,2013-04-15 07:21:00,
2013-04-15 02:22:00,42.5,32.0,29.38,North,0,0.0,0.0,66,0.00,,,0.00,WUHU216HW,2013-04-15 07:22:00,
2013-04-15 02:24:00,42.5,32.0,29.38,North,0,0.0,0.0,66,0.00,,,0.00,WUHU216HW,2013-04-15 07:24:00,
2013-04-15 02:25:00,42.3,31.8,29.37,North,0,0.0,0.0,66,0.00,,,0.00,WUHU216HW,2013-04-15 07:25:00,
2013-04-15 02:27:00,42.5,32.0,29.37,North,0,0.0,0.0,66,0.00,,,0.00,WUHU216HW,2013-04-15 07:27:00,
2013-04-15 02:28:00,42.3,31.8,29.37,North,0,0.0,0.0,66,0.00,,,0.00,WUHU216HW,2013-04-15 07:28:00,
2013-04-15 02:30:00,42.3,31.8,29.38,North,0,0.0,0.0,66,0.00,,,0.00,WUHU216HW,2013-04-15 07:30:00,
2013-04-15 02:31:00,42.3,31.8,29.38,North,0,0.0,0.0,66,0.00,,,0.00,WUHU216HW,2013-04-15 07:31:00,
2013-04-15 02:41:00,42.1,31.1,29.38,North,0,0.0,0.0,65,0.00,,,0.00,WUHU216HW,2013-04-15 07:41:00,
2013-04-15 02:46:00,41.9,31.0,29.38,North,0,0.0,0.0,65,0.00,,,0.00,WUHU216HW,2013-04-15 07:46:00,
2013-04-15 02:48:00,41.9,31.0,29.38,North,0,0.0,0.0,65,0.00,,,0.00,WUHU216HW,2013-04-15 07:48:00,
2013-04-15 02:51:00,41.8,31.2,29.38,North,0,0.0,0.0,66,0.00,,,0.00,WUHU216HW,2013-04-15 07:51:00,
2013-04-15 02:56:00,41.6,31.1,29.38,North,0,0.0,0.0,66,0.00,,,0.00,WUHU216HW,2013-04-15 07:56:00,
2013-04-15 03:01:00,41.6,31.1,29.38,North,0,0.0,0.0,66,0.00,,,0.00,WUHU216HW,2013-04-15 08:01:00,
2013-04-15 03:06:00,41.4,30.9,29.38,North,0,0.0,0.0,66,0.00,,,0.00,WUHU216HW,2013-04-15 08:06:00,
2013-04-15 03:11:00,41.4,30.9,29.38,North,0,0.0,0.0,66,0.00,,,0.00,WUHU216HW,2013-04-15 08:11:00,
2013-04-15 03:16:00,41.0,30.2,29.38,North,0,0.0,0.0,65,0.00,,,0.00,WUHU216HW,2013-04-15 08:16:00,
2013-04-15 03:21:00,40.9,30.0,29.38,North,0,0.0,0.0,65,0.00,,,0.00,WUHU216HW,2013-04-15 08:21:00,
2013-04-15 03:27:00,40.7,29.8,29.39,North,0,0.0,0.0,65,0.00,,,0.00,WUHU216HW,2013-04-15 08:27:00,
2013-04-15 03:32:00,40.7,30.2,29.40,North,0,0.0,0.0,66,0.00,,,0.00,WUHU216HW,2013-04-15 08:32:00,
2013-04-15 03:35:00,40.7,30.5,29.40,North,0,0.0,0.0,67,0.00,,,0.00,WUHU216HW,2013-04-15 08:35:00,
2013-04-15 03:40:00,40.7,30.2,29.40,North,0,0.0,0.0,66,0.00,,,0.00,WUHU216HW,2013-04-15 08:40:00,
2013-04-15 03:45:00,40.7,30.2,29.40,North,0,0.0,0.0,66,0.00,,,0.00,WUHU216HW,2013-04-15 08:45:00,
2013-04-15 03:50:00,40.7,30.2,29.40,North,0,0.0,0.0,66,0.00,,,0.00,WUHU216HW,2013-04-15 08:50:00,
2013-04-15 03:55:00,40.7,30.2,29.40,North,0,0.0,0.0,66,0.00,,,0.00,WUHU216HW,2013-04-15 08:55:00,
2013-04-15 04:00:00,40.7,30.2,29.40,North,0,0.0,0.0,66,0.00,,,0.00,WUHU216HW,2013-04-15 09:00:00,
2013-04-15 04:05:00,40.1,29.6,29.41,North,0,0.0,0.0,66,0.00,,,0.00,WUHU216HW,2013-04-15 09:05:00,
2013-04-15 04:10:00,40.1,29.6,29.41,North,0,0.0,0.0,66,0.00,,,0.00,WUHU216HW,2013-04-15 09:10:00,
2013-04-15 04:15:00,40.3,29.8,29.41,North,0,0.0,0.0,66,0.00,,,0.00,WUHU216HW,2013-04-15 09:15:00,
2013-04-15 04:20:00,40.5,30.0,29.42,North,0,0.0,0.0,66,0.00,,,0.00,WUHU216HW,2013-04-15 09:20:00,
2013-04-15 04:25:00,40.7,30.2,29.42,North,0,0.0,0.0,66,0.00,,,0.00,WUHU216HW,2013-04-15 09:25:00,
2013-04-15 04:30:00,40.5,30.0,29.42,North,0,0.0,0.0,66,0.00,,,0.00,WUHU216HW,2013-04-15 09:30:00,
2013-04-15 04:35:00,40.5,30.0,29.42,North,0,0.0,0.0,66,0.00,,,0.00,WUHU216HW,2013-04-15 09:35:00,
2013-04-15 04:40:00,40.3,29.8,29.42,North,0,0.0,0.0,66,0.00,,,0.00,WUHU216HW,2013-04-15 09:40:00,
2013-04-15 04:45:00,40.1,29.6,29.41,North,0,0.0,0.0,66,0.00,,,0.00,WUHU216HW,2013-04-15 09:45:00,
2013-04-15 04:50:00,40.0,29.4,29.41,North,0,0.0,0.0,66,0.00,,,0.00,WUHU216HW,2013-04-15 09:50:00,
2013-04-15 04:55:00,40.0,29.1,29.42,North,0,0.0,0.0,65,0.00,,,0.00,WUHU216HW,2013-04-15 09:55:00,
2013-04-15 05:00:00,39.8,29.3,29.42,North,0,0.0,0.0,66,0.00,,,0.00,WUHU216HW,2013-04-15 10:00:00,
2013-04-15 05:05:00,39.8,29.3,29.42,North,0,0.0,0.0,66,0.00,,,0.00,WUHU216HW,2013-04-15 10:05:00,
2013-04-15 05:10:00,39.6,29.1,29.42,North,0,0.0,0.0,66,0.00,,,0.00,WUHU216HW,2013-04-15 10:10:00,
2013-04-15 05:15:00,39.8,29.3,29.43,North,0,0.0,0.0,66,0.00,,,0.00,WUHU216HW,2013-04-15 10:15:00,
2013-04-15 05:20:00,39.6,29.1,29.44,North,0,0.0,0.0,66,0.00,,,0.00,WUHU216HW,2013-04-15 10:20:00,
2013-04-15 05:25:00,39.6,29.4,29.44,North,0,0.0,0.0,67,0.00,,,0.00,WUHU216HW,2013-04-15 10:25:00,
2013-04-15 05:30:00,39.6,29.1,29.44,North,0,0.0,0.0,66,0.00,,,0.00,WUHU216HW,2013-04-15 10:30:00,
2013-04-15 05:35:00,39.6,29.1,29.44,North,0,0.0,0.0,66,0.00,,,0.00,WUHU216HW,2013-04-15 10:35:00,
2013-04-15 05:40:00,39.4,28.9,29.44,North,0,0.0,0.0,66,0.00,,,0.00,WUHU216HW,2013-04-15 10:40:00,
2013-04-15 05:45:00,39.4,28.9,29.44,North,0,0.0,0.0,66,0.00,,,0.00,WUHU216HW,2013-04-15 10:45:00,
2013-04-15 05:50:00,39.4,28.9,29.45,North,0,0.0,0.0,66,0.00,,,0.00,WUHU216HW,2013-04-15 10:50:00,
2013-04-15 05:55:00,39.4,28.9,29.45,North,0,0.0,0.0,66,0.00,,,0.00,WUHU216HW,2013-04-15 10:55:00,
2013-04-15 06:00:00,39.2,28.7,29.45,North,0,0.0,0.0,66,0.00,,,0.00,WUHU216HW,2013-04-15 11:00:00,
2013-04-15 06:05:00,39.4,28.9,29.45,North,0,0.0,0.0,66,0.00,,,0.00,WUHU216HW,2013-04-15 11:05:00,
2013-04-15 06:10:00,39.2,28.7,29.46,North,0,0.0,0.0,66,0.00,,,0.00,WUHU216HW,2013-04-15 11:10:00,
2013-04-15 06:15:00,39.2,29.1,29.47,North,0,0.0,0.0,67,0.00,,,0.00,WUHU216HW,2013-04-15 11:15:00,
2013-04-15 06:20:00,39.2,28.7,29.47,North,0,0.0,0.0,66,0.00,,,0.00,WUHU216HW,2013-04-15 11:20:00,
2013-04-15 06:25:00,39.1,29.0,29.48,North,0,0.0,0.0,67,0.00,,,0.00,WUHU216HW,2013-04-15 11:25:00,
2013-04-15 06:30:00,38.9,28.8,29.49,North,0,0.0,0.0,67,0.00,,,0.00,WUHU216HW,2013-04-15 11:30:00,
2013-04-15 06:35:00,38.7,28.6,29.49,North,0,0.0,0.0,67,0.00,,,0.00,WUHU216HW,2013-04-15 11:35:00,
2013-04-15 06:40:00,38.5,28.4,29.50,North,0,0.0,0.0,67,0.00,,,0.00,WUHU216HW,2013-04-15 11:40:00,
2013-04-15 06:45:00,38.2,28.2,29.50,North,0,0.0,0.0,67,0.00,,,0.00,WUHU216HW,2013-04-15 11:45:00,
2013-04-15 06:50:00,37.8,27.8,29.50,North,0,0.0,0.0,67,0.00,,,0.00,WUHU216HW,2013-04-15 11:50:00,
2013-04-15 06:55:00,37.8,28.2,29.50,North,0,0.0,0.0,68,0.00,,,0.00,WUHU216HW,2013-04-15 11:55:00,
2013-04-15 07:00:00,37.6,28.0,29.50,North,0,0.0,0.0,68,0.00,,,0.00,WUHU216HW,2013-04-15 12:00:00,
2013-04-15 07:05:00,37.8,28.2,29.50,North,0,0.0,0.0,68,0.00,,,0.00,WUHU216HW,2013-04-15 12:05:00,
2013-04-15 07:10:00,37.6,28.0,29.51,North,0,0.0,0.0,68,0.00,,,0.00,WUHU216HW,2013-04-15 12:10:00,
2013-04-15 07:15:00,37.6,28.5,29.52,North,0,0.0,0.0,69,0.00,,,0.00,WUHU216HW,2013-04-15 12:15:00,
2013-04-15 07:20:00,37.8,28.5,29.52,North,0,0.0,0.0,69,0.00,,,0.00,WUHU216HW,2013-04-15 12:20:00,
2013-04-15 07:25:00,38.2,28.5,29.52,North,0,0.0,0.0,68,0.00,,,0.00,WUHU216HW,2013-04-15 12:25:00,
2013-04-15 07:30:00,38.5,28.4,29.52,North,0,0.0,0.0,67,0.00,,,0.00,WUHU216HW,2013-04-15 12:30:00,
2013-04-15 07:35:00,38.7,28.6,29.53,North,0,0.0,0.0,67,0.00,,,0.00,WUHU216HW,2013-04-15 12:35:00,
2013-04-15 07:40:00,39.1,29.0,29.53,North,0,0.0,0.0,67,0.00,,,0.00,WUHU216HW,2013-04-15 12:40:00,
2013-04-15 07:45:00,39.1,29.0,29.53,North,0,0.0,0.0,67,0.00,,,0.00,WUHU216HW,2013-04-15 12:45:00,
2013-04-15 07:50:00,39.1,28.5,29.53,North,0,0.0,0.0,66,0.00,,,0.00,WUHU216HW,2013-04-15 12:50:00,
2013-04-15 07:55:00,39.1,28.5,29.52,North,0,0.0,0.0,66,0.00,,,0.00,WUHU216HW,2013-04-15 12:55:00,
2013-04-15 08:01:00,39.4,28.9,29.53,North,0,0.0,0.0,66,0.00,,,0.00,WUHU216HW,2013-04-15 13:01:00,
2013-04-15 08:06:00,39.4,28.5,29.53,North,0,0.0,0.0,65,0.00,,,0.00,WUHU216HW,2013-04-15 13:06:00,
2013-04-15 08:11:00,39.6,28.7,29.53,North,0,0.0,0.0,65,0.00,,,0.00,WUHU216HW,2013-04-15 13:11:00,
2013-04-15 08:16:00,39.8,28.9,29.54,North,0,0.0,0.0,65,0.00,,,0.00,WUHU216HW,2013-04-15 13:16:00,
2013-04-15 08:21:00,40.0,28.4,29.53,North,0,0.0,0.0,63,0.00,,,0.00,WUHU216HW,2013-04-15 13:21:00,
2013-04-15 08:26:00,40.0,29.1,29.53,North,0,0.0,0.0,65,0.00,,,0.00,WUHU216HW,2013-04-15 13:26:00,
2013-04-15 08:32:00,40.3,29.4,29.54,North,0,0.0,0.0,65,0.00,,,0.00,WUHU216HW,2013-04-15 13:32:00,
2013-04-15 08:37:00,40.5,28.9,29.55,North,0,0.0,0.0,63,0.00,,,0.00,WUHU216HW,2013-04-15 13:37:00,
2013-04-15 08:42:00,40.3,28.7,29.56,North,0,0.0,0.0,63,0.00,,,0.00,WUHU216HW,2013-04-15 13:42:00,
2013-04-15 08:47:00,40.1,28.1,29.56,North,0,0.0,0.0,62,0.00,,,0.00,WUHU216HW,2013-04-15 13:47:00,
2013-04-15 08:52:00,40.0,27.9,29.55,North,0,0.0,0.0,62,0.00,,,0.00,WUHU216HW,2013-04-15 13:52:00,
2013-04-15 08:57:00,39.8,27.7,29.55,North,0,0.0,0.0,62,0.00,,,0.00,WUHU216HW,2013-04-15 13:57:00,
2013-04-15 09:02:00,39.4,25.7,29.56,North,0,0.0,0.0,58,0.00,,,0.00,WUHU216HW,2013-04-15 14:02:00,
2013-04-15 09:07:00,38.9,25.8,29.57,North,0,0.0,0.0,59,0.00,,,0.00,WUHU216HW,2013-04-15 14:07:00,
2013-04-15 09:12:00,38.7,25.6,29.57,North,0,0.0,0.0,59,0.00,,,0.00,WUHU216HW,2013-04-15 14:12:00,
2013-04-15 09:17:00,38.5,25.4,29.58,North,0,0.0,0.0,59,0.00,,,0.00,WUHU216HW,2013-04-15 14:17:00,
2013-04-15 09:22:00,38.5,24.9,29.58,North,0,0.0,0.0,58,0.00,,,0.00,WUHU216HW,2013-04-15 14:22:00,
2013-04-15 09:27:00,38.5,25.8,29.58,North,0,0.0,0.0,60,0.00,,,0.00,WUHU216HW,2013-04-15 14:27:00,
2013-04-15 09:32:00,38.3,24.8,29.58,North,0,0.0,0.0,58,0.00,,,0.00,WUHU216HW,2013-04-15 14:32:00,
2013-04-15 09:37:00,37.8,24.8,29.57,North,0,0.0,0.0,59,0.00,,,0.00,WUHU216HW,2013-04-15 14:37:00,
2013-04-15 09:42:00,37.8,24.8,29.57,North,0,0.0,0.0,59,0.00,,,0.00,WUHU216HW,2013-04-15 14:42:00,
2013-04-15 09:47:00,37.8,24.8,29.57,North,0,0.0,0.0,59,0.00,,,0.00,WUHU216HW,2013-04-15 14:47:00,
2013-04-15 09:52:00,37.8,24.8,29.57,North,0,0.0,0.0,59,0.00,,,0.00,WUHU216HW,2013-04-15 14:52:00,
2013-04-15 09:58:00,37.8,25.2,29.56,North,0,0.0,0.0,60,0.00,,,0.00,WUHU216HW,2013-04-15 14:58:00,
2013-04-15 10:03:00,37.8,25.2,29.57,North,0,0.0,0.0,60,0.00,,,0.00,WUHU216HW,2013-04-15 15:03:00,
2013-04-15 10:08:00,38.0,25.8,29.57,North,0,0.0,0.0,61,0.00,,,0.00,WUHU216HW,2013-04-15 15:08:00,
2013-04-15 10:13:00,38.2,25.5,29.56,North,0,0.0,0.0,60,0.00,,,0.00,WUHU216HW,2013-04-15 15:13:00,
2013-04-15 10:18:00,38.3,25.7,29.57,North,0,0.0,0.0,60,0.00,,,0.00,WUHU216HW,2013-04-15 15:18:00,
2013-04-15 10:23:00,38.5,26.2,29.57,North,0,0.0,0.0,61,0.00,,,0.00,WUHU216HW,2013-04-15 15:23:00,
2013-04-15 10:28:00,38.5,26.2,29.58,North,0,0.0,0.0,61,0.00,,,0.00,WUHU216HW,2013-04-15 15:28:00,
2013-04-15 10:33:00,38.9,26.6,29.57,North,0,0.0,0.0,61,0.00,,,0.00,WUHU216HW,2013-04-15 15:33:00,
2013-04-15 10:38:00,38.5,26.2,29.57,North,0,0.0,0.0,61,0.00,,,0.00,WUHU216HW,2013-04-15 15:38:00,
2013-04-15 10:43:00,38.3,26.4,29.57,North,0,0.0,0.0,62,0.00,,,0.00,WUHU216HW,2013-04-15 15:43:00,
2013-04-15 10:48:00,37.8,26.3,29.58,North,0,0.0,0.0,63,0.00,,,0.00,WUHU216HW,2013-04-15 15:48:00,
2013-04-15 10:53:00,37.8,27.1,29.58,North,0,0.0,0.0,65,0.00,,,0.00,WUHU216HW,2013-04-15 15:53:00,
2013-04-15 10:58:00,37.6,27.6,29.59,North,0,0.0,0.0,67,0.00,,,0.00,WUHU216HW,2013-04-15 15:58:00,
2013-04-15 11:03:00,37.3,27.7,29.59,North,0,0.0,0.0,68,0.00,,,0.00,WUHU216HW,2013-04-15 16:03:00,
2013-04-15 11:09:00,37.1,27.9,29.60,North,0,0.0,0.0,69,0.00,,,0.00,WUHU216HW,2013-04-15 16:09:00,
2013-04-15 11:14:00,37.1,27.9,29.60,North,0,0.0,0.0,69,0.00,,,0.00,WUHU216HW,2013-04-15 16:14:00,
2013-04-15 11:19:00,36.9,28.5,29.60,North,0,0.0,0.0,71,0.00,,,0.00,WUHU216HW,2013-04-15 16:19:00,
2013-04-15 11:24:00,36.7,28.5,29.60,North,0,0.0,0.0,72,0.00,,,0.00,WUHU216HW,2013-04-15 16:24:00,
2013-04-15 11:29:00,36.9,28.5,29.60,North,0,0.0,0.0,71,0.00,,,0.00,WUHU216HW,2013-04-15 16:29:00,
2013-04-15 11:34:00,37.3,28.8,29.60,North,0,0.0,0.0,71,0.00,,,0.00,WUHU216HW,2013-04-15 16:34:00,
2013-04-15 11:39:00,37.8,28.2,29.61,North,0,0.0,0.0,68,0.00,,,0.00,WUHU216HW,2013-04-15 16:39:00,
2013-04-15 11:44:00,38.0,27.2,29.61,North,0,0.0,0.0,65,0.00,,,0.00,WUHU216HW,2013-04-15 16:44:00,
2013-04-15 11:49:00,38.0,27.6,29.61,North,0,0.0,0.0,66,0.00,,,0.00,WUHU216HW,2013-04-15 16:49:00,
2013-04-15 11:54:00,38.3,27.9,29.62,North,0,0.0,0.0,66,0.00,,,0.00,WUHU216HW,2013-04-15 16:54:00,
2013-04-15 11:59:00,38.5,27.4,29.62,North,0,0.0,0.0,64,0.00,,,0.00,WUHU216HW,2013-04-15 16:59:00,
2013-04-15 12:04:00,38.9,28.0,29.62,North,0,0.0,0.0,65,0.00,,,0.00,WUHU216HW,2013-04-15 17:04:00,
2013-04-15 12:09:00,39.2,28.0,29.62,North,0,0.0,0.0,64,0.00,,,0.00,WUHU216HW,2013-04-15 17:09:00,
2013-04-15 12:14:00,39.4,27.8,29.63,North,0,0.0,0.0,63,0.00,,,0.00,WUHU216HW,2013-04-15 17:14:00,
2013-04-15 12:19:00,39.4,27.8,29.63,North,0,0.0,0.0,63,0.00,,,0.00,WUHU216HW,2013-04-15 17:19:00,
2013-04-15 12:21:00,39.6,28.0,29.63,North,0,0.0,0.0,63,0.00,,,0.00,WUHU216HW,2013-04-15 17:21:00,
2013-04-15 12:22:00,39.8,28.2,29.63,North,0,0.0,0.0,63,0.00,,,0.00,WUHU216HW,2013-04-15 17:22:00,
2013-04-15 12:25:00,40.0,28.4,29.62,North,0,0.0,0.0,63,0.00,,,0.00,WUHU216HW,2013-04-15 17:25:00,
2013-04-15 12:30:00,40.0,27.9,29.62,North,0,0.0,0.0,62,0.00,,,0.00,WUHU216HW,2013-04-15 17:30:00,
2013-04-15 12:35:00,40.1,28.1,29.62,North,0,0.0,0.0,62,0.00,,,0.00,WUHU216HW,2013-04-15 17:35:00,
2013-04-15 12:40:00,40.3,28.3,29.61,North,0,0.0,0.0,62,0.00,,,0.00,WUHU216HW,2013-04-15 17:40:00,
2013-04-15 12:45:00,40.7,28.6,29.61,North,0,0.0,0.0,62,0.00,,,0.00,WUHU216HW,2013-04-15 17:45:00,
2013-04-15 12:50:00,41.0,28.6,29.61,North,0,0.0,0.0,61,0.00,,,0.00,WUHU216HW,2013-04-15 17:50:00,
2013-04-15 12:55:00,40.9,28.1,29.61,North,0,0.0,0.0,60,0.00,,,0.00,WUHU216HW,2013-04-15 17:55:00,
2013-04-15 13:00:00,41.0,28.3,29.61,North,0,0.0,0.0,60,0.00,,,0.00,WUHU216HW,2013-04-15 18:00:00,
2013-04-15 13:05:00,41.0,27.4,29.61,North,0,0.0,0.0,58,0.00,,,0.00,WUHU216HW,2013-04-15 18:05:00,
2013-04-15 13:10:00,40.9,27.6,29.61,North,0,0.0,0.0,59,0.00,,,0.00,WUHU216HW,2013-04-15 18:10:00,
2013-04-15 13:15:00,40.9,27.6,29.61,North,0,0.0,0.0,59,0.00,,,0.00,WUHU216HW,2013-04-15 18:15:00,
2013-04-15 13:20:00,41.0,27.8,29.61,North,0,0.0,0.0,59,0.00,,,0.00,WUHU216HW,2013-04-15 18:20:00,
2013-04-15 13:25:00,41.0,27.4,29.61,North,0,0.0,0.0,58,0.00,,,0.00,WUHU216HW,2013-04-15 18:25:00,
2013-04-15 13:29:00,40.9,27.2,29.61,North,0,0.0,0.0,58,0.00,,,0.00,WUHU216HW,2013-04-15 18:29:00,
2013-04-15 13:34:00,40.9,28.1,29.61,North,0,0.0,0.0,60,0.00,,,0.00,WUHU216HW,2013-04-15 18:34:00,
2013-04-15 13:39:00,41.2,28.5,29.61,North,0,0.0,0.0,60,0.00,,,0.00,WUHU216HW,2013-04-15 18:39:00,
2013-04-15 13:44:00,41.4,28.2,29.61,North,0,0.0,0.0,59,0.00,,,0.00,WUHU216HW,2013-04-15 18:44:00,
2013-04-15 13:49:00,41.4,27.7,29.61,North,0,0.0,0.0,58,0.00,,,0.00,WUHU216HW,2013-04-15 18:49:00,
2013-04-15 13:54:00,41.4,28.2,29.61,North,0,0.0,0.0,59,0.00,,,0.00,WUHU216HW,2013-04-15 18:54:00,
2013-04-15 13:59:00,41.6,28.7,29.61,North,0,0.0,0.0,60,0.00,,,0.00,WUHU216HW,2013-04-15 18:59:00,
2013-04-15 14:04:00,41.9,29.1,29.61,North,0,0.0,0.0,60,0.00,,,0.00,WUHU216HW,2013-04-15 19:04:00,
2013-04-15 14:09:00,42.1,28.8,29.61,North,0,0.0,0.0,59,0.00,,,0.00,WUHU216HW,2013-04-15 19:09:00,
2013-04-15 14:14:00,41.9,27.7,29.61,North,0,0.0,0.0,57,0.00,,,0.00,WUHU216HW,2013-04-15 19:14:00,
2013-04-15 14:19:00,41.8,28.9,29.61,North,0,0.0,0.0,60,0.00,,,0.00,WUHU216HW,2013-04-15 19:19:00,
2013-04-15 14:24:00,42.1,29.3,29.61,North,0,0.0,0.0,60,0.00,,,0.00,WUHU216HW,2013-04-15 19:24:00,
2013-04-15 14:29:00,42.3,28.5,29.61,North,0,0.0,0.0,58,0.00,,,0.00,WUHU216HW,2013-04-15 19:29:00,
2013-04-15 14:34:00,42.3,28.5,29.61,North,0,0.0,0.0,58,0.00,,,0.00,WUHU216HW,2013-04-15 19:34:00,
2013-04-15 14:39:00,42.5,28.3,29.61,North,0,0.0,0.0,57,0.00,,,0.00,WUHU216HW,2013-04-15 19:39:00,
2013-04-15 14:44:00,42.3,29.0,29.61,North,0,0.0,0.0,59,0.00,,,0.00,WUHU216HW,2013-04-15 19:44:00,
2013-04-15 14:50:00,42.7,29.3,29.60,North,0,0.0,0.0,59,0.00,,,0.00,WUHU216HW,2013-04-15 19:50:00,
2013-04-15 14:55:00,43.0,29.6,29.60,North,0,0.0,0.0,59,0.00,,,0.00,WUHU216HW,2013-04-15 19:55:00,
2013-04-15 14:57:00,43.4,30.0,29.60,North,0,0.0,0.0,59,0.00,,,0.00,WUHU216HW,2013-04-15 19:57:00,
2013-04-15 14:59:00,43.4,30.0,29.60,North,0,0.0,0.0,59,0.00,,,0.00,WUHU216HW,2013-04-15 19:59:00,
2013-04-15 15:02:00,43.7,29.0,29.60,North,0,0.0,0.0,56,0.00,,,0.00,WUHU216HW,2013-04-15 20:02:00,
2013-04-15 15:08:00,43.6,29.3,29.60,North,0,0.0,0.0,57,0.00,,,0.00,WUHU216HW,2013-04-15 20:08:00,
2013-04-15 15:13:00,43.6,29.7,29.60,North,0,0.0,0.0,58,0.00,,,0.00,WUHU216HW,2013-04-15 20:13:00,
2013-04-15 15:18:00,43.7,29.9,29.60,North,0,0.0,0.0,58,0.00,,,0.00,WUHU216HW,2013-04-15 20:18:00,
2013-04-15 15:23:00,44.3,30.0,29.60,North,0,0.0,0.0,57,0.00,,,0.00,WUHU216HW,2013-04-15 20:23:00,
2013-04-15 15:28:00,44.3,29.1,29.59,North,0,0.0,0.0,55,0.00,,,0.00,WUHU216HW,2013-04-15 20:28:00,
2013-04-15 15:33:00,43.9,29.6,29.59,North,0,0.0,0.0,57,0.00,,,0.00,WUHU216HW,2013-04-15 20:33:00,
2013-04-15 15:38:00,44.1,29.3,29.59,North,0,0.0,0.0,56,0.00,,,0.00,WUHU216HW,2013-04-15 20:38:00,
2013-04-15 15:43:00,44.3,29.5,29.59,North,0,0.0,0.0,56,0.00,,,0.00,WUHU216HW,2013-04-15 20:43:00,
2013-04-15 15:48:00,44.6,29.4,29.58,North,0,0.0,0.0,55,0.00,,,0.00,WUHU216HW,2013-04-15 20:48:00,
2013-04-15 15:53:00,44.5,29.3,29.59,North,0,0.0,0.0,55,0.00,,,0.00,WUHU216HW,2013-04-15 20:53:00,
2013-04-15 15:58:00,44.6,29.9,29.58,North,0,0.0,0.0,56,0.00,,,0.00,WUHU216HW,2013-04-15 20:58:00,
2013-04-15 16:02:00,44.8,30.1,29.59,North,0,0.0,0.0,56,0.00,,,0.00,WUHU216HW,2013-04-15 21:02:00,
2013-04-15 16:07:00,45.0,30.7,29.59,North,0,0.0,0.0,57,0.00,,,0.00,WUHU216HW,2013-04-15 21:07:00,
2013-04-15 16:12:00,45.0,29.8,29.58,North,0,0.0,0.0,55,0.00,,,0.00,WUHU216HW,2013-04-15 21:12:00,
2013-04-15 16:17:00,45.0,30.3,29.58,North,0,0.0,0.0,56,0.00,,,0.00,WUHU216HW,2013-04-15 21:17:00,
2013-04-15 16:22:00,44.8,29.2,29.58,North,0,0.0,0.0,54,0.00,,,0.00,WUHU216HW,2013-04-15 21:22:00,
2013-04-15 16:27:00,45.0,30.3,29.59,North,0,0.0,0.0,56,0.00,,,0.00,WUHU216HW,2013-04-15 21:27:00,
2013-04-15 16:32:00,45.0,30.3,29.58,North,0,0.0,0.0,56,0.00,,,0.00,WUHU216HW,2013-04-15 21:32:00,
2013-04-15 16:37:00,45.2,29.9,29.58,North,0,0.0,0.0,55,0.00,,,0.00,WUHU216HW,2013-04-15 21:37:00,
2013-04-15 16:43:00,45.4,30.5,29.58,North,0,0.0,0.0,56,0.00,,,0.00,WUHU216HW,2013-04-15 21:43:00,
2013-04-15 16:47:00,45.5,30.2,29.58,North,0,0.0,0.0,55,0.00,,,0.00,WUHU216HW,2013-04-15 21:47:00,
2013-04-15 16:52:00,45.7,30.0,29.58,North,0,0.0,0.0,54,0.00,,,0.00,WUHU216HW,2013-04-15 21:52:00,
2013-04-15 16:57:00,45.5,30.2,29.58,North,0,0.0,0.0,55,0.00,,,0.00,WUHU216HW,2013-04-15 21:57:00,
2013-04-15 17:02:00,45.9,30.6,29.59,North,0,0.0,0.0,55,0.00,,,0.00,WUHU216HW,2013-04-15 22:02:00,
2013-04-15 17:07:00,46.1,30.2,29.58,North,0,0.0,0.0,54,0.00,,,0.00,WUHU216HW,2013-04-15 22:07:00,
2013-04-15 17:12:00,46.1,30.2,29.59,North,0,0.0,0.0,54,0.00,,,0.00,WUHU216HW,2013-04-15 22:12:00,
2013-04-15 17:17:00,45.9,29.7,29.59,North,0,0.0,0.0,53,0.00,,,0.00,WUHU216HW,2013-04-15 22:17:00,
2013-04-15 17:22:00,46.1,30.2,29.59,North,0,0.0,0.0,54,0.00,,,0.00,WUHU216HW,2013-04-15 22:22:00,
2013-04-15 17:27:00,46.1,29.8,29.59,North,0,0.0,0.0,53,0.00,,,0.00,WUHU216HW,2013-04-15 22:27:00,
2013-04-15 17:32:00,46.1,29.3,29.59,North,0,0.0,0.0,52,0.00,,,0.00,WUHU216HW,2013-04-15 22:32:00,
2013-04-15 17:37:00,45.9,29.3,29.59,North,0,0.0,0.0,52,0.00,,,0.00,WUHU216HW,2013-04-15 22:37:00,
2013-04-15 17:42:00,46.1,29.8,29.59,North,0,0.0,0.0,53,0.00,,,0.00,WUHU216HW,2013-04-15 22:42:00,
2013-04-15 17:47:00,45.9,29.3,29.59,North,0,0.0,0.0,52,0.00,,,0.00,WUHU216HW,2013-04-15 22:47:00,
2013-04-15 17:52:00,45.7,29.5,29.60,North,0,0.0,0.0,53,0.00,,,0.00,WUHU216HW,2013-04-15 22:52:00,
2013-04-15 17:57:00,45.7,29.5,29.60,North,0,0.0,0.0,53,0.00,,,0.00,WUHU216HW,2013-04-15 22:57:00,
2013-04-15 18:02:00,45.9,30.2,29.60,North,0,0.0,0.0,54,0.00,,,0.00,WUHU216HW,2013-04-15 23:02:00,
2013-04-15 18:07:00,45.9,30.2,29.59,North,0,0.0,0.0,54,0.00,,,0.00,WUHU216HW,2013-04-15 23:07:00,
2013-04-15 18:13:00,45.9,30.2,29.60,North,0,0.0,0.0,54,0.00,,,0.00,WUHU216HW,2013-04-15 23:13:00,
2013-04-15 18:17:00,45.7,30.0,29.60,North,0,0.0,0.0,54,0.00,,,0.00,WUHU216HW,2013-04-15 23:17:00,
2013-04-15 18:22:00,45.7,30.0,29.60,North,0,0.0,0.0,54,0.00,,,0.00,WUHU216HW,2013-04-15 23:22:00,
2013-04-15 18:27:00,45.5,29.3,29.60,North,0,0.0,0.0,53,0.00,,,0.00,WUHU216HW,2013-04-15 23:27:00,
2013-04-15 18:33:00,45.5,29.3,29.60,North,0,0.0,0.0,53,0.00,,,0.00,WUHU216HW,2013-04-15 23:33:00,
2013-04-15 18:37:00,45.4,29.2,29.61,North,0,0.0,0.0,53,0.00,,,0.00,WUHU216HW,2013-04-15 23:37:00,
2013-04-15 18:42:00,45.4,29.2,29.61,North,0,0.0,0.0,53,0.00,,,0.00,WUHU216HW,2013-04-15 23:42:00,
2013-04-15 18:48:00,45.4,29.2,29.61,North,0,0.0,0.0,53,0.00,,,0.00,WUHU216HW,2013-04-15 23:48:00,
2013-04-15 18:53:00,45.4,29.2,29.61,North,0,0.0,0.0,53,0.00,,,0.00,WUHU216HW,2013-04-15 23:53:00,
2013-04-15 18:58:00,45.4,29.6,29.61,North,0,0.0,0.0,54,0.00,,,0.00,WUHU216HW,2013-04-15 23:58:00,
2013-04-15 19:03:00,45.4,29.6,29.62,North,0,0.0,0.0,54,0.00,,,0.00,WUHU216HW,2013-04-16 00:03:00,
2013-04-15 19:08:00,45.4,29.6,29.62,North,0,0.0,0.0,54,0.00,,,0.00,WUHU216HW,2013-04-16 00:08:00,
2013-04-15 19:13:00,45.4,29.6,29.62,North,0,0.0,0.0,54,0.00,,,0.00,WUHU216HW,2013-04-16 00:13:00,
2013-04-15 19:18:00,45.4,29.6,29.62,North,0,0.0,0.0,54,0.00,,,0.00,WUHU216HW,2013-04-16 00:18:00,
2013-04-15 19:22:00,45.4,30.1,29.62,North,0,0.0,0.0,55,0.00,,,0.00,WUHU216HW,2013-04-16 00:22:00,
2013-04-15 19:27:00,45.4,30.1,29.62,North,0,0.0,0.0,55,0.00,,,0.00,WUHU216HW,2013-04-16 00:27:00,
2013-04-15 19:32:00,45.4,30.1,29.62,North,0,0.0,0.0,55,0.00,,,0.00,WUHU216HW,2013-04-16 00:32:00,
2013-04-15 19:37:00,45.4,30.1,29.63,North,0,0.0,0.0,55,0.00,,,0.00,WUHU216HW,2013-04-16 00:37:00,
2013-04-15 19:42:00,45.4,30.1,29.63,North,0,0.0,0.0,55,0.00,,,0.00,WUHU216HW,2013-04-16 00:42:00,
2013-04-15 19:47:00,45.4,30.1,29.63,North,0,0.0,0.0,55,0.00,,,0.00,WUHU216HW,2013-04-16 00:47:00,
2013-04-15 19:52:00,45.2,30.3,29.63,North,0,0.0,0.0,56,0.00,,,0.00,WUHU216HW,2013-04-16 00:52:00,
2013-04-15 19:57:00,45.5,30.7,29.63,North,0,0.0,0.0,56,0.00,,,0.00,WUHU216HW,2013-04-16 00:57:00,
2013-04-15 20:02:00,45.7,31.3,29.63,North,0,0.0,0.0,57,0.00,,,0.00,WUHU216HW,2013-04-16 01:02:00,
2013-04-15 20:07:00,45.7,31.3,29.64,North,0,0.0,0.0,57,0.00,,,0.00,WUHU216HW,2013-04-16 01:07:00,
2013-04-15 20:12:00,45.9,31.5,29.64,North,0,0.0,0.0,57,0.00,,,0.00,WUHU216HW,2013-04-16 01:12:00,
2013-04-15 20:17:00,45.7,31.3,29.64,North,0,0.0,0.0,57,0.00,,,0.00,WUHU216HW,2013-04-16 01:17:00,
2013-04-15 20:22:00,45.7,31.3,29.64,North,0,0.0,0.0,57,0.00,,,0.00,WUHU216HW,2013-04-16 01:22:00,
2013-04-15 20:27:00,45.7,31.3,29.65,North,0,0.0,0.0,57,0.00,,,0.00,WUHU216HW,2013-04-16 01:27:00,
2013-04-15 20:32:00,45.7,31.3,29.65,North,0,0.0,0.0,57,0.00,,,0.00,WUHU216HW,2013-04-16 01:32:00,
2013-04-15 20:37:00,45.7,31.8,29.65,North,0,0.0,0.0,58,0.00,,,0.00,WUHU216HW,2013-04-16 01:37:00,
2013-04-15 20:42:00,45.7,31.8,29.65,North,0,0.0,0.0,58,0.00,,,0.00,WUHU216HW,2013-04-16 01:42:00,
2013-04-15 20:47:00,45.7,32.2,29.66,North,0,0.0,0.0,59,0.00,,,0.00,WUHU216HW,2013-04-16 01:47:00,
2013-04-15 20:52:00,45.7,32.2,29.66,North,0,0.0,0.0,59,0.00,,,0.00,WUHU216HW,2013-04-16 01:52:00,
2013-04-15 20:57:00,45.7,32.2,29.67,North,0,0.0,0.0,59,0.00,,,0.00,WUHU216HW,2013-04-16 01:57:00,
2013-04-15 21:02:00,45.7,32.2,29.68,North,0,0.0,0.0,59,0.00,,,0.00,WUHU216HW,2013-04-16 02:02:00,
2013-04-15 21:07:00,45.7,32.2,29.68,North,0,0.0,0.0,59,0.00,,,0.00,WUHU216HW,2013-04-16 02:07:00,
2013-04-15 21:12:00,45.7,32.2,29.68,North,0,0.0,0.0,59,0.00,,,0.00,WUHU216HW,2013-04-16 02:12:00,
2013-04-15 21:17:00,45.7,32.2,29.69,North,0,0.0,0.0,59,0.00,,,0.00,WUHU216HW,2013-04-16 02:17:00,
2013-04-15 21:23:00,45.7,32.2,29.69,North,0,0.0,0.0,59,0.00,,,0.00,WUHU216HW,2013-04-16 02:23:00,
2013-04-15 21:27:00,45.5,32.0,29.69,North,0,0.0,0.0,59,0.00,,,0.00,WUHU216HW,2013-04-16 02:27:00,
2013-04-15 21:33:00,45.4,31.4,29.70,North,0,0.0,0.0,58,0.00,,,0.00,WUHU216HW,2013-04-16 02:33:00,
2013-04-15 21:38:00,45.2,31.2,29.70,North,0,0.0,0.0,58,0.00,,,0.00,WUHU216HW,2013-04-16 02:38:00,
2013-04-15 21:43:00,45.0,31.6,29.70,North,0,0.0,0.0,59,0.00,,,0.00,WUHU216HW,2013-04-16 02:43:00,
2013-04-15 21:48:00,44.8,31.4,29.70,North,0,0.0,0.0,59,0.00,,,0.00,WUHU216HW,2013-04-16 02:48:00,
2013-04-15 21:53:00,44.6,31.2,29.71,North,0,0.0,0.0,59,0.00,,,0.00,WUHU216HW,2013-04-16 02:53:00,
2013-04-15 21:58:00,44.6,31.2,29.71,North,0,0.0,0.0,59,0.00,,,0.00,WUHU216HW,2013-04-16 02:58:00,
2013-04-15 22:03:00,44.3,30.9,29.71,North,0,0.0,0.0,59,0.00,,,0.00,WUHU216HW,2013-04-16 03:03:00,
2013-04-15 22:08:00,44.1,30.7,29.70,North,0,0.0,0.0,59,0.00,,,0.00,WUHU216HW,2013-04-16 03:08:00,
2013-04-15 22:13:00,43.9,30.5,29.71,North,0,0.0,0.0,59,0.00,,,0.00,WUHU216HW,2013-04-16 03:13:00,
2013-04-15 22:18:00,43.6,30.2,29.71,North,0,0.0,0.0,59,0.00,,,0.00,WUHU216HW,2013-04-16 03:18:00,
2013-04-15 22:23:00,43.2,30.2,29.72,North,0,0.0,0.0,60,0.00,,,0.00,WUHU216HW,2013-04-16 03:23:00,
2013-04-15 22:28:00,43.2,30.2,29.72,North,0,0.0,0.0,60,0.00,,,0.00,WUHU216HW,2013-04-16 03:28:00,
2013-04-15 22:33:00,42.8,29.9,29.72,North,0,0.0,0.0,60,0.00,,,0.00,WUHU216HW,2013-04-16 03:33:00,
2013-04-15 22:38:00,42.8,29.9,29.72,North,0,0.0,0.0,60,0.00,,,0.00,WUHU216HW,2013-04-16 03:38:00,
2013-04-15 22:43:00,42.5,30.0,29.72,North,0,0.0,0.0,61,0.00,,,0.00,WUHU216HW,2013-04-16 03:43:00,
2013-04-15 22:48:00,42.5,30.0,29.73,North,0,0.0,0.0,61,0.00,,,0.00,WUHU216HW,2013-04-16 03:48:00,
2013-04-15 22:53:00,42.5,30.0,29.73,North,0,0.0,0.0,61,0.00,,,0.00,WUHU216HW,2013-04-16 03:53:00,
2013-04-15 22:58:00,42.3,29.8,29.73,North,0,0.0,0.0,61,0.00,,,0.00,WUHU216HW,2013-04-16 03:58:00,
2013-04-15 23:00:00,42.1,29.6,29.73,North,0,0.0,0.0,61,0.00,,,0.00,WUHU216HW,2013-04-16 04:00:00,
2013-04-15 23:05:00,42.1,29.6,29.73,North,0,0.0,0.0,61,0.00,,,0.00,WUHU216HW,2013-04-16 04:05:00,
2013-04-15 23:10:00,41.9,29.9,29.73,North,0,0.0,0.0,62,0.00,,,0.00,WUHU216HW,2013-04-16 04:10:00,
2013-04-15 23:15:00,41.9,30.3,29.73,North,0,0.0,0.0,63,0.00,,,0.00,WUHU216HW,2013-04-16 04:15:00,
2013-04-15 23:20:00,42.3,30.6,29.72,North,0,0.0,0.0,63,0.00,,,0.00,WUHU216HW,2013-04-16 04:20:00,
2013-04-15 23:25:00,42.5,30.7,29.72,North,0,0.0,0.0,63,0.00,,,0.00,WUHU216HW,2013-04-16 04:25:00,
2013-04-15 23:30:00,42.8,31.1,29.73,North,0,0.0,0.0,63,0.00,,,0.00,WUHU216HW,2013-04-16 04:30:00,
2013-04-15 23:35:00,42.8,30.7,29.73,North,0,0.0,0.0,62,0.00,,,0.00,WUHU216HW,2013-04-16 04:35:00,
2013-04-15 23:40:00,42.8,30.7,29.74,North,0,0.0,0.0,62,0.00,,,0.00,WUHU216HW,2013-04-16 04:40:00,
2013-04-15 23:45:00,42.7,30.5,29.75,North,0,0.0,0.0,62,0.00,,,0.00,WUHU216HW,2013-04-16 04:45:00,
2013-04-15 23:50:00,42.1,30.0,29.75,North,0,0.0,0.0,62,0.00,,,0.00,WUHU216HW,2013-04-16 04:50:00,
2013-04-15 23:55:00,41.9,29.9,29.74,North,0,0.0,0.0,62,0.00,,,0.00,WUHU216HW,2013-04-16 04:55:00,